Time,TemperatureF,DewpointF,PressureIn,WindDirection,WindDirectionDegrees,WindSpeedMPH,WindSpeedGustMPH,Humidity,HourlyPrecipIn,Conditions,Clouds,dailyrainin,SolarRadiationWatts/m^2,SoftwareType,DateUTC
2013-03-01 00:02:00,23.0,14.0,-100.00,NNE,14,5.0,11.0,69,0.00,,,0.00,0.000000,,2013-03-01 06:02:00,
2013-03-01 00:32:00,23.0,14.0,-100.00,NNE,18,3.0,9.0,67,0.00,,,0.00,0.000000,,2013-03-01 06:32:00,
2013-03-01 00:42:00,23.0,14.0,-100.00,NNE,18,3.0,9.0,67,0.00,,,0.00,0.000000,,2013-03-01 06:42:00,
2013-03-01 00:52:00,23.0,14.0,-100.00,NNE,18,3.0,9.0,67,0.00,,,0.00,0.000000,,2013-03-01 06:52:00,
2013-03-01 01:02:00,23.0,14.0,-100.00,NNE,18,3.0,9.0,67,0.00,,,0.00,0.000000,,2013-03-01 07:02:00,
2013-03-01 01:32:00,23.0,14.0,-100.00,NE,53,4.0,8.0,67,0.00,,,0.00,0.000000,,2013-03-01 07:32:00,
2013-03-01 01:42:00,23.0,14.0,-100.00,NE,53,4.0,8.0,67,0.00,,,0.00,0.000000,,2013-03-01 07:42:00,
2013-03-01 01:52:00,23.0,14.0,-100.00,NE,53,4.0,8.0,67,0.00,,,0.00,0.000000,,2013-03-01 07:52:00,
2013-03-01 02:02:00,23.0,14.0,-100.00,NE,53,4.0,8.0,67,0.00,,,0.00,0.000000,,2013-03-01 08:02:00,
2013-03-01 02:33:00,22.0,13.0,-100.00,NE,36,4.0,12.0,68,0.00,,,0.00,0.000000,,2013-03-01 08:33:00,
2013-03-01 02:43:00,22.0,13.0,-100.00,NE,36,4.0,12.0,68,0.00,,,0.00,0.000000,,2013-03-01 08:43:00,
2013-03-01 02:53:00,22.0,13.0,-100.00,NE,36,4.0,12.0,68,0.00,,,0.00,0.000000,,2013-03-01 08:53:00,
2013-03-01 03:02:00,22.0,13.0,-100.00,NE,36,4.0,12.0,68,0.00,,,0.00,0.000000,,2013-03-01 09:02:00,
2013-03-01 03:32:00,22.0,14.0,-100.00,NE,50,3.0,7.0,71,0.00,,,0.00,0.000000,,2013-03-01 09:32:00,
2013-03-01 03:42:00,22.0,14.0,-100.00,NE,50,3.0,7.0,71,0.00,,,0.00,0.000000,,2013-03-01 09:42:00,
2013-03-01 03:52:00,22.0,14.0,-100.00,NE,50,3.0,7.0,71,0.00,,,0.00,0.000000,,2013-03-01 09:52:00,
2013-03-01 04:02:00,22.0,14.0,-100.00,NE,50,3.0,7.0,71,0.00,,,0.00,0.000000,,2013-03-01 10:02:00,
2013-03-01 04:32:00,21.0,13.0,-100.00,North,355,4.0,5.0,72,0.00,,,0.00,0.000000,,2013-03-01 10:32:00,
2013-03-01 04:42:00,21.0,13.0,-100.00,North,355,4.0,5.0,72,0.00,,,0.00,0.000000,,2013-03-01 10:42:00,
2013-03-01 04:53:00,21.0,13.0,-100.00,North,355,4.0,5.0,72,0.00,,,0.00,0.000000,,2013-03-01 10:53:00,
2013-03-01 05:01:00,21.0,13.0,-100.00,North,355,4.0,5.0,72,0.00,,,0.00,0.000000,,2013-03-01 11:01:00,
2013-03-01 05:32:00,21.0,13.0,-100.00,North,359,4.0,6.0,72,0.00,,,0.00,0.000000,,2013-03-01 11:32:00,
2013-03-01 05:42:00,21.0,13.0,-100.00,North,359,4.0,6.0,72,0.00,,,0.00,0.000000,,2013-03-01 11:42:00,
2013-03-01 05:52:00,21.0,13.0,-100.00,North,359,4.0,6.0,72,0.00,,,0.00,0.000000,,2013-03-01 11:52:00,
2013-03-01 06:01:00,21.0,13.0,-100.00,North,359,4.0,6.0,72,0.00,,,0.00,0.000000,,2013-03-01 12:01:00,
2013-03-01 06:32:00,21.0,12.0,-100.00,North,356,5.0,9.0,68,0.00,,,0.00,0.000000,,2013-03-01 12:32:00,
2013-03-01 06:42:00,21.0,12.0,-100.00,North,356,5.0,9.0,68,0.00,,,0.00,0.000000,,2013-03-01 12:42:00,
2013-03-01 06:52:00,21.0,12.0,-100.00,North,356,5.0,9.0,68,0.00,,,0.00,0.000000,,2013-03-01 12:52:00,
2013-03-01 07:01:00,21.0,12.0,-100.00,North,356,5.0,9.0,68,0.00,,,0.00,0.000000,,2013-03-01 13:01:00,
2013-03-01 07:32:00,21.0,12.0,-100.00,North,7,5.0,9.0,69,0.00,,,0.00,3.000000,,2013-03-01 13:32:00,
2013-03-01 07:42:00,21.0,12.0,-100.00,North,7,5.0,9.0,69,0.00,,,0.00,3.000000,,2013-03-01 13:42:00,
2013-03-01 07:52:00,21.0,12.0,-100.00,North,7,5.0,9.0,69,0.00,,,0.00,3.000000,,2013-03-01 13:52:00,
2013-03-01 08:01:00,21.0,12.0,-100.00,North,7,5.0,9.0,69,0.00,,,0.00,3.000000,,2013-03-01 14:01:00,
2013-03-01 08:32:00,22.0,13.0,-100.00,North,5,5.0,11.0,67,0.00,,,0.00,44.000000,,2013-03-01 14:32:00,
2013-03-01 08:42:00,22.0,13.0,-100.00,North,5,5.0,11.0,67,0.00,,,0.00,44.000000,,2013-03-01 14:42:00,
2013-03-01 08:52:00,22.0,13.0,-100.00,North,5,5.0,11.0,67,0.00,,,0.00,44.000000,,2013-03-01 14:52:00,
2013-03-01 09:01:00,22.0,13.0,-100.00,North,5,5.0,11.0,67,0.00,,,0.00,44.000000,,2013-03-01 15:01:00,
2013-03-01 09:32:00,24.0,13.0,-100.00,NNE,21,4.0,11.0,62,0.00,,,0.00,166.000000,,2013-03-01 15:32:00,
2013-03-01 09:42:00,24.0,13.0,-100.00,NNE,21,4.0,11.0,62,0.00,,,0.00,166.000000,,2013-03-01 15:42:00,
2013-03-01 09:52:00,24.0,13.0,-100.00,NNE,21,4.0,11.0,62,0.00,,,0.00,166.000000,,2013-03-01 15:52:00,
2013-03-01 10:01:00,24.0,13.0,-100.00,NNE,21,4.0,11.0,62,0.00,,,0.00,166.000000,,2013-03-01 16:01:00,
2013-03-01 10:32:00,25.0,13.0,-100.00,North,8,5.0,14.0,59,0.00,,,0.00,278.000000,,2013-03-01 16:32:00,
2013-03-01 10:42:00,25.0,13.0,-100.00,North,8,5.0,14.0,59,0.00,,,0.00,278.000000,,2013-03-01 16:42:00,
2013-03-01 10:52:00,25.0,13.0,-100.00,North,8,5.0,14.0,59,0.00,,,0.00,278.000000,,2013-03-01 16:52:00,
2013-03-01 11:01:00,25.0,13.0,-100.00,North,8,5.0,14.0,59,0.00,,,0.00,278.000000,,2013-03-01 17:01:00,
2013-03-01 11:32:00,27.0,14.0,-100.00,NNE,25,5.0,14.0,57,0.00,,,0.00,404.000000,,2013-03-01 17:32:00,
2013-03-01 11:42:00,27.0,14.0,-100.00,NNE,25,5.0,14.0,57,0.00,,,0.00,404.000000,,2013-03-01 17:42:00,
2013-03-01 11:52:00,27.0,14.0,-100.00,NNE,25,5.0,14.0,57,0.00,,,0.00,404.000000,,2013-03-01 17:52:00,
2013-03-01 12:01:00,27.0,14.0,-100.00,NNE,25,5.0,14.0,57,0.00,,,0.00,404.000000,,2013-03-01 18:01:00,
2013-03-01 12:32:00,27.0,13.0,-100.00,North,2,7.0,12.0,55,0.00,,,0.00,484.000000,,2013-03-01 18:32:00,
2013-03-01 12:42:00,27.0,13.0,-100.00,North,2,7.0,12.0,55,0.00,,,0.00,484.000000,,2013-03-01 18:42:00,
2013-03-01 12:52:00,27.0,13.0,-100.00,North,2,7.0,12.0,55,0.00,,,0.00,484.000000,,2013-03-01 18:52:00,
2013-03-01 13:01:00,27.0,13.0,-100.00,North,2,7.0,12.0,55,0.00,,,0.00,484.000000,,2013-03-01 19:01:00,
2013-03-01 13:32:00,29.0,13.0,-100.00,North,5,7.0,13.0,51,0.00,,,0.00,504.000000,,2013-03-01 19:32:00,
2013-03-01 13:42:00,29.0,13.0,-100.00,North,5,7.0,13.0,51,0.00,,,0.00,504.000000,,2013-03-01 19:42:00,
2013-03-01 13:52:00,29.0,13.0,-100.00,North,5,7.0,13.0,51,0.00,,,0.00,504.000000,,2013-03-01 19:52:00,
2013-03-01 14:01:00,29.0,13.0,-100.00,North,5,7.0,13.0,51,0.00,,,0.00,504.000000,,2013-03-01 20:01:00,
2013-03-01 14:32:00,31.0,14.0,-100.00,NNE,12,6.0,12.0,48,0.00,,,0.00,528.000000,,2013-03-01 20:32:00,
2013-03-01 14:42:00,31.0,14.0,-100.00,NNE,12,6.0,12.0,48,0.00,,,0.00,528.000000,,2013-03-01 20:42:00,
2013-03-01 14:52:00,31.0,14.0,-100.00,NNE,12,6.0,12.0,48,0.00,,,0.00,528.000000,,2013-03-01 20:52:00,
2013-03-01 15:01:00,31.0,14.0,-100.00,NNE,12,6.0,12.0,48,0.00,,,0.00,528.000000,,2013-03-01 21:01:00,
2013-03-01 15:32:00,32.0,12.0,-100.00,North,355,7.0,13.0,42,0.00,,,0.00,521.000000,,2013-03-01 21:32:00,
2013-03-01 15:42:00,32.0,12.0,-100.00,North,355,7.0,13.0,42,0.00,,,0.00,521.000000,,2013-03-01 21:42:00,
2013-03-01 15:52:00,32.0,12.0,-100.00,North,355,7.0,13.0,42,0.00,,,0.00,521.000000,,2013-03-01 21:52:00,
2013-03-01 16:01:00,32.0,12.0,-100.00,North,355,7.0,13.0,42,0.00,,,0.00,521.000000,,2013-03-01 22:01:00,
2013-03-01 16:32:00,30.0,11.0,-100.00,North,355,8.0,12.0,44,0.00,,,0.00,269.000000,,2013-03-01 22:32:00,
2013-03-01 16:42:00,30.0,11.0,-100.00,North,355,8.0,12.0,44,0.00,,,0.00,269.000000,,2013-03-01 22:42:00,
2013-03-01 16:52:00,30.0,11.0,-100.00,North,355,8.0,12.0,44,0.00,,,0.00,269.000000,,2013-03-01 22:52:00,
2013-03-01 17:01:00,30.0,11.0,-100.00,North,355,8.0,12.0,44,0.00,,,0.00,269.000000,,2013-03-01 23:01:00,
2013-03-01 17:32:00,28.0,9.0,-100.00,North,3,6.0,11.0,44,0.00,,,0.00,181.000000,,2013-03-01 23:32:00,
2013-03-01 17:42:00,28.0,9.0,-100.00,North,3,6.0,11.0,44,0.00,,,0.00,181.000000,,2013-03-01 23:42:00,
2013-03-01 17:52:00,28.0,9.0,-100.00,North,3,6.0,11.0,44,0.00,,,0.00,181.000000,,2013-03-01 23:52:00,
2013-03-01 18:02:00,28.0,9.0,-100.00,North,3,6.0,11.0,44,0.00,,,0.00,181.000000,,2013-03-02 00:02:00,
2013-03-01 18:32:00,23.0,7.0,-100.00,North,0,3.0,11.0,50,0.00,,,0.00,39.000000,,2013-03-02 00:32:00,
2013-03-01 18:42:00,23.0,7.0,-100.00,North,0,3.0,11.0,50,0.00,,,0.00,39.000000,,2013-03-02 00:42:00,
2013-03-01 18:52:00,23.0,7.0,-100.00,North,0,3.0,11.0,50,0.00,,,0.00,39.000000,,2013-03-02 00:52:00,
2013-03-01 19:01:00,23.0,7.0,-100.00,North,0,3.0,11.0,50,0.00,,,0.00,39.000000,,2013-03-02 01:01:00,
2013-03-01 19:32:00,18.0,6.0,-100.00,NNW,348,2.0,5.0,60,0.00,,,0.00,0.000000,,2013-03-02 01:32:00,
2013-03-01 19:42:00,18.0,6.0,-100.00,NNW,348,2.0,5.0,60,0.00,,,0.00,0.000000,,2013-03-02 01:42:00,
2013-03-01 19:52:00,18.0,6.0,-100.00,NNW,348,2.0,5.0,60,0.00,,,0.00,0.000000,,2013-03-02 01:52:00,
2013-03-01 20:01:00,18.0,6.0,-100.00,NNW,348,2.0,5.0,60,0.00,,,0.00,0.000000,,2013-03-02 02:01:00,
2013-03-01 20:32:00,16.0,8.0,-100.00,NNW,348,1.0,2.0,70,0.00,,,0.00,0.000000,,2013-03-02 02:32:00,
2013-03-01 20:42:00,16.0,8.0,-100.00,NNW,348,1.0,2.0,70,0.00,,,0.00,0.000000,,2013-03-02 02:42:00,
2013-03-01 20:52:00,16.0,8.0,-100.00,NNW,348,1.0,2.0,70,0.00,,,0.00,0.000000,,2013-03-02 02:52:00,
2013-03-01 21:02:00,16.0,8.0,-100.00,NNW,348,1.0,2.0,70,0.00,,,0.00,0.000000,,2013-03-02 03:02:00,
2013-03-01 21:32:00,19.0,9.0,-100.00,North,354,6.0,9.0,63,0.00,,,0.00,0.000000,,2013-03-02 03:32:00,
2013-03-01 21:42:00,19.0,9.0,-100.00,North,354,6.0,9.0,63,0.00,,,0.00,0.000000,,2013-03-02 03:42:00,
2013-03-01 21:52:00,19.0,9.0,-100.00,North,354,6.0,9.0,63,0.00,,,0.00,0.000000,,2013-03-02 03:52:00,
2013-03-01 22:01:00,19.0,9.0,-100.00,North,354,6.0,9.0,63,0.00,,,0.00,0.000000,,2013-03-02 04:01:00,
2013-03-01 22:32:00,18.0,10.0,-100.00,North,359,6.0,9.0,69,0.00,,,0.00,0.000000,,2013-03-02 04:32:00,
2013-03-01 22:42:00,18.0,10.0,-100.00,North,359,6.0,9.0,69,0.00,,,0.00,0.000000,,2013-03-02 04:42:00,
2013-03-01 22:52:00,18.0,10.0,-100.00,North,359,6.0,9.0,69,0.00,,,0.00,0.000000,,2013-03-02 04:52:00,
2013-03-01 23:02:00,18.0,10.0,-100.00,North,359,6.0,9.0,69,0.00,,,0.00,0.000000,,2013-03-02 05:02:00,
2013-03-01 23:32:00,16.0,9.0,-100.00,North,350,6.0,9.0,73,0.00,,,0.00,0.000000,,2013-03-02 05:32:00,
2013-03-01 23:42:00,16.0,9.0,-100.00,North,350,6.0,9.0,73,0.00,,,0.00,0.000000,,2013-03-02 05:42:00,
2013-03-01 23:52:00,16.0,9.0,-100.00,North,350,6.0,9.0,73,0.00,,,0.00,0.000000,,2013-03-02 05:52:00,